PWSweather.com
Personal Weather Stations
Station Observations
KKSTOPEK1
South Central , Topeka, KS 66611

South Central Topeka, KS 66611

Lat: 39.03, Lon: -95.71

Elevation: 945

Station Type: Davis Vantage Vue

http://tallgrasspixels.net/weather/index.php

High Low Average
Temperature 57.0°F13.9°F 30.2°F-1.0°F 43.5°F6.4°F
Dew Point 45.7°F7.6°F 29.5°F-1.4°F 40.0°F4.4°F
Winds 3.0 mph SW4.8 mph SW Calm Calm 0.5 mph 0.8 mph
Wind Gusts 7.0 mph11.3 mph -- 1.7 mph2.7 mph
Humidity 100% 58% 89%
Pressure 29.54 in1000.30 in 29.40 in995.60 in -
Precipitation 0.36 in9.10 in - -
Hour Temp Dew Point Humidity Winds Wind Gusts Pressure Precip Precip Rate Daily Precip Total
12:00 AM 41.1°F5.1°C 41.1°F5.1°C 100% Calm Calm 2.0 mph3.2 kmh 29.40 in995.6 mb 0.00 in0.0 mm 0.00 in0.0 mm 0.00 in0.0 mm
12:10 AM 40.9°F4.9°C 40.9°F4.9°C 100% 1.0 mph W1.6 kmh W 1.0 mph1.6 kmh 29.40 in995.6 mb 0.00 in0.0 mm 0.00 in0.0 mm 0.00 in0.0 mm
12:20 AM 41.0°F5.0°C 41.0°F5.0°C 100% Calm Calm 1.0 mph1.6 kmh 29.40 in995.6 mb 0.00 in0.0 mm 0.00 in0.0 mm 0.00 in0.0 mm
12:30 AM 41.1°F5.1°C 41.1°F5.1°C 100% Calm Calm 1.0 mph1.6 kmh 29.40 in995.6 mb 0.00 in0.0 mm 0.00 in0.0 mm 0.00 in0.0 mm
12:40 AM 41.3°F5.2°C 41.3°F5.2°C 100% Calm Calm 2.0 mph3.2 kmh 29.40 in995.6 mb 0.00 in0.0 mm 0.00 in0.0 mm 0.00 in0.0 mm
12:50 AM 41.1°F5.1°C 41.1°F5.1°C 100% 1.0 mph SW1.6 kmh SW 2.0 mph3.2 kmh 29.40 in995.6 mb 0.00 in0.0 mm 0.00 in0.0 mm 0.00 in0.0 mm
01:00 AM 40.7°F4.8°C 39.9°F4.4°C 97% Calm Calm 1.0 mph1.6 kmh 29.40 in995.6 mb 0.00 in0.0 mm 0.00 in0.0 mm 0.00 in0.0 mm
01:10 AM 40.2°F4.6°C 39.4°F4.1°C 97% Calm Calm 1.0 mph1.6 kmh 29.40 in995.6 mb 0.00 in0.0 mm 0.00 in0.0 mm 0.00 in0.0 mm
01:20 AM 39.8°F4.3°C 39.0°F3.9°C 97% Calm Calm 1.0 mph1.6 kmh 29.40 in995.6 mb 0.00 in0.0 mm 0.00 in0.0 mm 0.00 in0.0 mm
01:30 AM 39.3°F4.1°C 38.5°F3.6°C 97% Calm Calm 1.0 mph1.6 kmh 29.40 in995.6 mb 0.00 in0.0 mm 0.00 in0.0 mm 0.00 in0.0 mm
01:40 AM 38.5°F3.6°C 37.7°F3.2°C 97% Calm Calm -- 29.40 in995.6 mb 0.00 in0.0 mm 0.00 in0.0 mm 0.00 in0.0 mm
01:50 AM 37.8°F3.2°C 37.0°F2.8°C 97% Calm Calm -- 29.40 in995.6 mb 0.00 in0.0 mm 0.00 in0.0 mm 0.00 in0.0 mm
02:00 AM 37.5°F3.1°C 36.7°F2.6°C 97% Calm Calm -- 29.41 in995.9 mb 0.00 in0.0 mm 0.00 in0.0 mm 0.00 in0.0 mm
02:10 AM 37.0°F2.8°C 36.2°F2.3°C 97% Calm Calm -- 29.41 in995.9 mb 0.00 in0.0 mm 0.00 in0.0 mm 0.00 in0.0 mm
02:20 AM 36.6°F2.6°C 35.8°F2.1°C 97% Calm Calm -- 29.41 in995.9 mb 0.00 in0.0 mm 0.00 in0.0 mm 0.00 in0.0 mm
02:30 AM 36.3°F2.4°C 35.5°F1.9°C 97% Calm Calm 1.0 mph1.6 kmh 29.42 in996.3 mb 0.00 in0.0 mm 0.00 in0.0 mm 0.00 in0.0 mm
02:40 AM 36.3°F2.4°C 35.5°F1.9°C 97% Calm Calm 1.0 mph1.6 kmh 29.42 in996.3 mb 0.00 in0.0 mm 0.00 in0.0 mm 0.00 in0.0 mm
02:50 AM 36.1°F2.3°C 35.3°F1.8°C 97% Calm Calm 1.0 mph1.6 kmh 29.42 in996.3 mb 0.00 in0.0 mm 0.00 in0.0 mm 0.00 in0.0 mm
03:00 AM 35.7°F2.1°C 34.9°F1.6°C 97% Calm Calm -- 29.42 in996.3 mb 0.00 in0.0 mm 0.00 in0.0 mm 0.00 in0.0 mm
03:10 AM 35.6°F2.0°C 34.8°F1.6°C 97% Calm Calm 1.0 mph1.6 kmh 29.42 in996.3 mb 0.00 in0.0 mm 0.00 in0.0 mm 0.00 in0.0 mm
03:20 AM 35.8°F2.1°C 35.8°F2.1°C 100% Calm Calm 1.0 mph1.6 kmh 29.42 in996.3 mb 0.00 in0.0 mm 0.00 in0.0 mm 0.00 in0.0 mm
03:30 AM 35.5°F1.9°C 35.5°F1.9°C 100% Calm Calm 1.0 mph1.6 kmh 29.42 in996.3 mb 0.00 in0.0 mm 0.00 in0.0 mm 0.00 in0.0 mm
03:40 AM 35.0°F1.7°C 34.2°F1.2°C 97% Calm Calm 1.0 mph1.6 kmh 29.42 in996.3 mb 0.00 in0.0 mm 0.00 in0.0 mm 0.00 in0.0 mm
03:50 AM 34.5°F1.4°C 33.7°F0.9°C 97% Calm Calm -- 29.41 in995.9 mb 0.00 in0.0 mm 0.00 in0.0 mm 0.00 in0.0 mm
04:00 AM 34.5°F1.4°C 33.7°F0.9°C 97% Calm Calm 1.0 mph1.6 kmh 29.42 in996.3 mb 0.01 in0.3 mm 0.01 in0.3 mm 0.01 in0.3 mm
04:10 AM 35.1°F1.7°C 35.1°F1.7°C 100% Calm Calm 1.0 mph1.6 kmh 29.43 in996.6 mb 0.01 in0.3 mm 0.00 in0.0 mm 0.01 in0.3 mm
04:20 AM 35.5°F1.9°C 35.5°F1.9°C 100% Calm Calm 1.0 mph1.6 kmh 29.43 in996.6 mb 0.01 in0.3 mm 0.00 in0.0 mm 0.01 in0.3 mm
04:30 AM 35.5°F1.9°C 35.5°F1.9°C 100% Calm Calm 1.0 mph1.6 kmh 29.43 in996.6 mb 0.01 in0.3 mm 0.00 in0.0 mm 0.01 in0.3 mm
04:40 AM 35.4°F1.9°C 35.4°F1.9°C 100% Calm Calm 1.0 mph1.6 kmh 29.43 in996.6 mb 0.01 in0.3 mm 0.00 in0.0 mm 0.01 in0.3 mm
04:50 AM 35.0°F1.7°C 35.0°F1.7°C 100% Calm Calm -- 29.43 in996.6 mb 0.01 in0.3 mm 0.00 in0.0 mm 0.01 in0.3 mm
05:00 AM 34.7°F1.5°C 34.7°F1.5°C 100% Calm Calm 1.0 mph1.6 kmh 29.43 in996.6 mb 0.00 in0.0 mm 0.00 in0.0 mm 0.01 in0.3 mm
05:10 AM 34.3°F1.3°C 34.3°F1.3°C 100% Calm Calm 1.0 mph1.6 kmh 29.43 in996.6 mb 0.00 in0.0 mm 0.00 in0.0 mm 0.01 in0.3 mm
05:20 AM 33.5°F0.8°C 33.5°F0.8°C 100% Calm Calm -- 29.43 in996.6 mb 0.00 in0.0 mm 0.00 in0.0 mm 0.01 in0.3 mm
05:30 AM 33.0°F0.6°C 33.0°F0.6°C 100% Calm Calm 1.0 mph1.6 kmh 29.43 in996.6 mb 0.00 in0.0 mm 0.00 in0.0 mm 0.01 in0.3 mm
05:40 AM 32.9°F0.5°C 32.9°F0.5°C 100% Calm Calm -- 29.43 in996.6 mb 0.00 in0.0 mm 0.00 in0.0 mm 0.01 in0.3 mm
05:50 AM 32.3°F0.2°C 31.5°F-0.3°C 97% Calm Calm 1.0 mph1.6 kmh 29.44 in997.0 mb 0.00 in0.0 mm 0.00 in0.0 mm 0.01 in0.3 mm
06:00 AM 32.0°F0.0°C 31.2°F-0.4°C 97% Calm Calm -- 29.44 in997.0 mb 0.00 in0.0 mm 0.00 in0.0 mm 0.01 in0.3 mm
06:10 AM 32.0°F0.0°C 32.0°F0.0°C 100% Calm Calm -- 29.44 in997.0 mb 0.00 in0.0 mm 0.00 in0.0 mm 0.01 in0.3 mm
06:20 AM 32.2°F0.1°C 32.2°F0.1°C 100% Calm Calm 1.0 mph1.6 kmh 29.43 in996.6 mb 0.00 in0.0 mm 0.00 in0.0 mm 0.01 in0.3 mm
06:30 AM 32.1°F0.1°C 32.1°F0.1°C 100% Calm Calm 1.0 mph1.6 kmh 29.44 in997.0 mb 0.00 in0.0 mm 0.00 in0.0 mm 0.01 in0.3 mm
06:40 AM 31.7°F-0.2°C 31.7°F-0.2°C 100% Calm Calm 1.0 mph1.6 kmh 29.45 in997.3 mb 0.00 in0.0 mm 0.00 in0.0 mm 0.01 in0.3 mm
06:50 AM 31.1°F-0.5°C 30.3°F-0.9°C 97% Calm Calm 1.0 mph1.6 kmh 29.44 in997.0 mb 0.00 in0.0 mm 0.00 in0.0 mm 0.01 in0.3 mm
07:00 AM 30.8°F-0.7°C 30.0°F-1.1°C 97% Calm Calm 1.0 mph1.6 kmh 29.45 in997.3 mb 0.00 in0.0 mm 0.00 in0.0 mm 0.01 in0.3 mm
07:10 AM 30.5°F-0.8°C 29.8°F-1.2°C 97% Calm Calm -- 29.45 in997.3 mb 0.00 in0.0 mm 0.00 in0.0 mm 0.01 in0.3 mm
07:20 AM 30.2°F-1.0°C 29.5°F-1.4°C 97% Calm Calm -- 29.45 in997.3 mb 0.00 in0.0 mm 0.00 in0.0 mm 0.01 in0.3 mm
07:30 AM 30.4°F-0.9°C 29.7°F-1.3°C 97% Calm Calm 1.0 mph1.6 kmh 29.45 in997.3 mb 0.00 in0.0 mm 0.00 in0.0 mm 0.01 in0.3 mm
07:40 AM 30.6°F-0.8°C 30.6°F-0.8°C 100% Calm Calm -- 29.44 in997.0 mb 0.00 in0.0 mm 0.00 in0.0 mm 0.01 in0.3 mm
07:50 AM 30.9°F-0.6°C 30.9°F-0.6°C 100% Calm Calm 1.0 mph1.6 kmh 29.45 in997.3 mb 0.00 in0.0 mm 0.00 in0.0 mm 0.01 in0.3 mm
08:00 AM 30.7°F-0.7°C 30.7°F-0.7°C 100% Calm Calm 1.0 mph1.6 kmh 29.46 in997.6 mb 0.00 in0.0 mm 0.00 in0.0 mm 0.01 in0.3 mm
08:10 AM 30.6°F-0.8°C 30.6°F-0.8°C 100% Calm Calm 1.0 mph1.6 kmh 29.47 in998.0 mb 0.00 in0.0 mm 0.00 in0.0 mm 0.01 in0.3 mm
08:20 AM 31.3°F-0.4°C 31.3°F-0.4°C 100% Calm Calm 1.0 mph1.6 kmh 29.47 in998.0 mb 0.00 in0.0 mm 0.00 in0.0 mm 0.01 in0.3 mm
08:30 AM 32.4°F0.2°C 32.4°F0.2°C 100% Calm Calm 1.0 mph1.6 kmh 29.48 in998.3 mb 0.00 in0.0 mm 0.00 in0.0 mm 0.01 in0.3 mm
08:40 AM 33.1°F0.6°C 33.1°F0.6°C 100% Calm Calm -- 29.47 in998.0 mb 0.00 in0.0 mm 0.00 in0.0 mm 0.01 in0.3 mm
08:50 AM 33.7°F0.9°C 33.7°F0.9°C 100% Calm Calm -- 29.48 in998.3 mb 0.00 in0.0 mm 0.00 in0.0 mm 0.01 in0.3 mm
09:00 AM 34.5°F1.4°C 34.5°F1.4°C 100% Calm Calm 2.0 mph3.2 kmh 29.50 in999.0 mb 0.00 in0.0 mm 0.00 in0.0 mm 0.01 in0.3 mm
09:10 AM 34.8°F1.6°C 34.8°F1.6°C 100% 1.0 mph SSE1.6 kmh SSE 4.0 mph6.4 kmh 29.50 in999.0 mb 0.00 in0.0 mm 0.00 in0.0 mm 0.01 in0.3 mm
09:20 AM 35.1°F1.7°C 35.1°F1.7°C 100% 1.0 mph S1.6 kmh S 3.0 mph4.8 kmh 29.51 in999.3 mb 0.00 in0.0 mm 0.00 in0.0 mm 0.01 in0.3 mm
09:30 AM 36.0°F2.2°C 36.0°F2.2°C 100% 1.0 mph S1.6 kmh S 4.0 mph6.4 kmh 29.52 in999.7 mb 0.00 in0.0 mm 0.00 in0.0 mm 0.01 in0.3 mm
09:40 AM 37.0°F2.8°C 37.0°F2.8°C 100% 1.0 mph SW1.6 kmh SW 4.0 mph6.4 kmh 29.52 in999.7 mb 0.00 in0.0 mm 0.00 in0.0 mm 0.01 in0.3 mm
09:50 AM 38.1°F3.4°C 38.1°F3.4°C 100% 1.0 mph SSW1.6 kmh SSW 3.0 mph4.8 kmh 29.53 in1000.0 mb 0.00 in0.0 mm 0.00 in0.0 mm 0.01 in0.3 mm
10:00 AM 39.2°F4.0°C 39.2°F4.0°C 100% 1.0 mph S1.6 kmh S 4.0 mph6.4 kmh 29.53 in1000.0 mb 0.00 in0.0 mm 0.00 in0.0 mm 0.01 in0.3 mm
10:10 AM 40.4°F4.7°C 40.4°F4.7°C 100% 1.0 mph S1.6 kmh S 6.0 mph9.7 kmh 29.53 in1000.0 mb 0.00 in0.0 mm 0.00 in0.0 mm 0.01 in0.3 mm
10:20 AM 41.5°F5.3°C 41.5°F5.3°C 100% 1.0 mph SSW1.6 kmh SSW 4.0 mph6.4 kmh 29.54 in1000.3 mb 0.00 in0.0 mm 0.00 in0.0 mm 0.01 in0.3 mm
10:30 AM 42.0°F5.6°C 42.0°F5.6°C 100% 2.0 mph SSW3.2 kmh SSW 5.0 mph8.0 kmh 29.53 in1000.0 mb 0.00 in0.0 mm 0.00 in0.0 mm 0.01 in0.3 mm
10:40 AM 43.0°F6.1°C 42.2°F5.7°C 97% 1.0 mph SW1.6 kmh SW 3.0 mph4.8 kmh 29.52 in999.7 mb 0.00 in0.0 mm 0.00 in0.0 mm 0.01 in0.3 mm
10:50 AM 44.0°F6.7°C 42.4°F5.8°C 94% 1.0 mph SSW1.6 kmh SSW 4.0 mph6.4 kmh 29.52 in999.7 mb 0.00 in0.0 mm 0.00 in0.0 mm 0.01 in0.3 mm
11:00 AM 44.6°F7.0°C 42.4°F5.8°C 92% 1.0 mph SE1.6 kmh SE 3.0 mph4.8 kmh 29.52 in999.7 mb 0.00 in0.0 mm 0.00 in0.0 mm 0.01 in0.3 mm
11:10 AM 45.4°F7.4°C 42.3°F5.7°C 89% 1.0 mph WSW1.6 kmh WSW 3.0 mph4.8 kmh 29.52 in999.7 mb 0.00 in0.0 mm 0.00 in0.0 mm 0.01 in0.3 mm
11:20 AM 46.2°F7.9°C 42.2°F5.7°C 86% 1.0 mph SW1.6 kmh SW 3.0 mph4.8 kmh 29.51 in999.3 mb 0.00 in0.0 mm 0.00 in0.0 mm 0.01 in0.3 mm
11:30 AM 47.3°F8.5°C 43.0°F6.1°C 85% 1.0 mph SE1.6 kmh SE 5.0 mph8.0 kmh 29.51 in999.3 mb 0.00 in0.0 mm 0.00 in0.0 mm 0.01 in0.3 mm
11:40 AM 48.0°F8.9°C 43.4°F6.3°C 84% 2.0 mph S3.2 kmh S 4.0 mph6.4 kmh 29.52 in999.7 mb 0.00 in0.0 mm 0.00 in0.0 mm 0.01 in0.3 mm
11:50 AM 48.5°F9.2°C 43.6°F6.4°C 83% 2.0 mph SSE3.2 kmh SSE 4.0 mph6.4 kmh 29.51 in999.3 mb 0.00 in0.0 mm 0.00 in0.0 mm 0.01 in0.3 mm
12:00 PM 49.1°F9.5°C 43.5°F6.4°C 81% 1.0 mph S1.6 kmh S 5.0 mph8.0 kmh 29.50 in999.0 mb 0.00 in0.0 mm 0.00 in0.0 mm 0.01 in0.3 mm
12:10 PM 49.4°F9.7°C 43.2°F6.2°C 79% 2.0 mph SW3.2 kmh SW 5.0 mph8.0 kmh 29.49 in998.6 mb 0.00 in0.0 mm 0.00 in0.0 mm 0.01 in0.3 mm
12:20 PM 50.1°F10.1°C 43.5°F6.4°C 78% 1.0 mph S1.6 kmh S 6.0 mph9.7 kmh 29.49 in998.6 mb 0.00 in0.0 mm 0.00 in0.0 mm 0.01 in0.3 mm
12:30 PM 50.3°F10.2°C 43.4°F6.3°C 77% 2.0 mph SW3.2 kmh SW 6.0 mph9.7 kmh 29.48 in998.3 mb 0.00 in0.0 mm 0.00 in0.0 mm 0.01 in0.3 mm
12:40 PM 50.8°F10.4°C 43.5°F6.4°C 76% 3.0 mph SW4.8 kmh SW 7.0 mph11.3 kmh 29.48 in998.3 mb 0.00 in0.0 mm 0.00 in0.0 mm 0.01 in0.3 mm
12:50 PM 51.1°F10.6°C 43.1°F6.2°C 74% 2.0 mph SSW3.2 kmh SSW 5.0 mph8.0 kmh 29.47 in998.0 mb 0.00 in0.0 mm 0.00 in0.0 mm 0.01 in0.3 mm
01:00 PM 51.7°F10.9°C 43.3°F6.3°C 73% 2.0 mph SSW3.2 kmh SSW 6.0 mph9.7 kmh 29.46 in997.6 mb 0.00 in0.0 mm 0.00 in0.0 mm 0.01 in0.3 mm
01:10 PM 52.6°F11.4°C 43.5°F6.4°C 71% 1.0 mph SW1.6 kmh SW 3.0 mph4.8 kmh 29.45 in997.3 mb 0.00 in0.0 mm 0.00 in0.0 mm 0.01 in0.3 mm
01:20 PM 52.6°F11.4°C 43.8°F6.6°C 72% 2.0 mph SW3.2 kmh SW 4.0 mph6.4 kmh 29.45 in997.3 mb 0.00 in0.0 mm 0.00 in0.0 mm 0.01 in0.3 mm
01:30 PM 53.0°F11.7°C 43.5°F6.4°C 70% 2.0 mph SW3.2 kmh SW 5.0 mph8.0 kmh 29.45 in997.3 mb 0.00 in0.0 mm 0.00 in0.0 mm 0.01 in0.3 mm
01:40 PM 53.7°F12.1°C 43.8°F6.6°C 69% 2.0 mph SW3.2 kmh SW 4.0 mph6.4 kmh 29.45 in997.3 mb 0.00 in0.0 mm 0.00 in0.0 mm 0.01 in0.3 mm
01:50 PM 54.3°F12.4°C 43.6°F6.4°C 67% 2.0 mph S3.2 kmh S 6.0 mph9.7 kmh 29.44 in997.0 mb 0.00 in0.0 mm 0.00 in0.0 mm 0.01 in0.3 mm
02:00 PM 54.5°F12.5°C 43.4°F6.3°C 66% 3.0 mph WSW4.8 kmh WSW 6.0 mph9.7 kmh 29.44 in997.0 mb 0.00 in0.0 mm 0.00 in0.0 mm 0.01 in0.3 mm
02:10 PM 55.1°F12.8°C 43.5°F6.4°C 65% 2.0 mph SSW3.2 kmh SSW 6.0 mph9.7 kmh 29.44 in997.0 mb 0.00 in0.0 mm 0.00 in0.0 mm 0.01 in0.3 mm
02:20 PM 55.4°F13.0°C 43.4°F6.3°C 64% 2.0 mph SW3.2 kmh SW 5.0 mph8.0 kmh 29.44 in997.0 mb 0.00 in0.0 mm 0.00 in0.0 mm 0.01 in0.3 mm
02:30 PM 55.7°F13.2°C 42.9°F6.1°C 62% 2.0 mph WSW3.2 kmh WSW 6.0 mph9.7 kmh 29.44 in997.0 mb 0.00 in0.0 mm 0.00 in0.0 mm 0.01 in0.3 mm
02:40 PM 55.9°F13.3°C 42.6°F5.9°C 61% 2.0 mph WSW3.2 kmh WSW 6.0 mph9.7 kmh 29.43 in996.6 mb 0.00 in0.0 mm 0.00 in0.0 mm 0.01 in0.3 mm
02:50 PM 56.3°F13.5°C 42.6°F5.9°C 60% 2.0 mph SW3.2 kmh SW 6.0 mph9.7 kmh 29.44 in997.0 mb 0.00 in0.0 mm 0.00 in0.0 mm 0.01 in0.3 mm
03:00 PM 56.8°F13.8°C 42.6°F5.9°C 59% 2.0 mph SW3.2 kmh SW 6.0 mph9.7 kmh 29.44 in997.0 mb 0.00 in0.0 mm 0.00 in0.0 mm 0.01 in0.3 mm
03:10 PM 56.4°F13.6°C 42.2°F5.7°C 59% 1.0 mph S1.6 kmh S 4.0 mph6.4 kmh 29.44 in997.0 mb 0.00 in0.0 mm 0.00 in0.0 mm 0.01 in0.3 mm
03:20 PM 56.6°F13.7°C 42.9°F6.1°C 60% 2.0 mph SSE3.2 kmh SSE 4.0 mph6.4 kmh 29.44 in997.0 mb 0.00 in0.0 mm 0.00 in0.0 mm 0.01 in0.3 mm
03:30 PM 57.0°F13.9°C 42.4°F5.8°C 58% 1.0 mph SSE1.6 kmh SSE 4.0 mph6.4 kmh 29.44 in997.0 mb 0.00 in0.0 mm 0.00 in0.0 mm 0.01 in0.3 mm
03:40 PM 56.6°F13.7°C 42.4°F5.8°C 59% 1.0 mph S1.6 kmh S 3.0 mph4.8 kmh 29.44 in997.0 mb 0.00 in0.0 mm 0.00 in0.0 mm 0.01 in0.3 mm
03:50 PM 56.1°F13.4°C 42.4°F5.8°C 60% 1.0 mph S1.6 kmh S 3.0 mph4.8 kmh 29.44 in997.0 mb 0.00 in0.0 mm 0.00 in0.0 mm 0.01 in0.3 mm
04:00 PM 55.5°F13.1°C 42.3°F5.7°C 61% 1.0 mph ESE1.6 kmh ESE 3.0 mph4.8 kmh 29.44 in997.0 mb 0.00 in0.0 mm 0.00 in0.0 mm 0.01 in0.3 mm
04:10 PM 55.1°F12.8°C 42.3°F5.7°C 62% Calm Calm 2.0 mph3.2 kmh 29.44 in997.0 mb 0.00 in0.0 mm 0.00 in0.0 mm 0.01 in0.3 mm
04:20 PM 54.9°F12.7°C 42.1°F5.6°C 62% Calm Calm 1.0 mph1.6 kmh 29.44 in997.0 mb 0.00 in0.0 mm 0.00 in0.0 mm 0.01 in0.3 mm
04:30 PM 54.7°F12.6°C 42.3°F5.7°C 63% Calm Calm -- 29.44 in997.0 mb 0.00 in0.0 mm 0.00 in0.0 mm 0.01 in0.3 mm
04:40 PM 54.4°F12.4°C 42.5°F5.8°C 64% Calm Calm 1.0 mph1.6 kmh 29.45 in997.3 mb 0.00 in0.0 mm 0.00 in0.0 mm 0.01 in0.3 mm
04:50 PM 54.2°F12.3°C 42.3°F5.7°C 64% Calm Calm 1.0 mph1.6 kmh 29.45 in997.3 mb 0.00 in0.0 mm 0.00 in0.0 mm 0.01 in0.3 mm
05:00 PM 53.8°F12.1°C 42.3°F5.7°C 65% Calm Calm -- 29.45 in997.3 mb 0.00 in0.0 mm 0.00 in0.0 mm 0.01 in0.3 mm
05:10 PM 53.3°F11.8°C 42.2°F5.7°C 66% Calm Calm -- 29.45 in997.3 mb 0.00 in0.0 mm 0.00 in0.0 mm 0.01 in0.3 mm
05:20 PM 53.0°F11.7°C 42.7°F5.9°C 68% Calm Calm -- 29.46 in997.6 mb 0.00 in0.0 mm 0.00 in0.0 mm 0.01 in0.3 mm
05:30 PM 52.6°F11.4°C 42.3°F5.7°C 68% Calm Calm -- 29.46 in997.6 mb 0.00 in0.0 mm 0.00 in0.0 mm 0.01 in0.3 mm
05:40 PM 52.1°F11.2°C 43.0°F6.1°C 71% Calm Calm -- 29.47 in998.0 mb 0.00 in0.0 mm 0.00 in0.0 mm 0.01 in0.3 mm
05:50 PM 51.6°F10.9°C 43.2°F6.2°C 73% Calm Calm -- 29.47 in998.0 mb 0.00 in0.0 mm 0.00 in0.0 mm 0.01 in0.3 mm
06:00 PM 51.0°F10.6°C 44.4°F6.9°C 78% Calm Calm -- 29.48 in998.3 mb 0.00 in0.0 mm 0.00 in0.0 mm 0.01 in0.3 mm
06:10 PM 50.4°F10.2°C 44.8°F7.1°C 81% Calm Calm -- 29.48 in998.3 mb 0.01 in0.3 mm 0.06 in1.5 mm 0.02 in0.5 mm
06:20 PM 49.7°F9.8°C 45.1°F7.3°C 84% Calm Calm -- 29.48 in998.3 mb 0.01 in0.3 mm 0.00 in0.0 mm 0.02 in0.5 mm
06:30 PM 49.2°F9.6°C 45.2°F7.3°C 86% Calm Calm -- 29.49 in998.6 mb 0.02 in0.5 mm 0.06 in1.5 mm 0.03 in0.8 mm
06:40 PM 48.7°F9.3°C 45.3°F7.4°C 88% Calm Calm -- 29.49 in998.6 mb 0.02 in0.5 mm 0.00 in0.0 mm 0.03 in0.8 mm
06:50 PM 48.3°F9.1°C 45.5°F7.5°C 90% Calm Calm -- 29.49 in998.6 mb 0.02 in0.5 mm 0.00 in0.0 mm 0.03 in0.8 mm
07:00 PM 48.1°F8.9°C 45.6°F7.6°C 91% Calm Calm -- 29.49 in998.6 mb 0.02 in0.5 mm 0.00 in0.0 mm 0.03 in0.8 mm
07:10 PM 47.7°F8.7°C 45.2°F7.3°C 91% Calm Calm -- 29.49 in998.6 mb 0.02 in0.5 mm 0.00 in0.0 mm 0.04 in1.0 mm
07:20 PM 47.3°F8.5°C 45.1°F7.3°C 92% Calm Calm -- 29.49 in998.6 mb 0.02 in0.5 mm 0.00 in0.0 mm 0.04 in1.0 mm
07:30 PM 47.2°F8.4°C 45.0°F7.2°C 92% Calm Calm -- 29.49 in998.6 mb 0.02 in0.5 mm 0.00 in0.0 mm 0.05 in1.3 mm
07:40 PM 47.2°F8.4°C 45.3°F7.4°C 93% Calm Calm -- 29.48 in998.3 mb 0.02 in0.5 mm 0.00 in0.0 mm 0.05 in1.3 mm
07:50 PM 47.3°F8.5°C 45.7°F7.6°C 94% Calm Calm -- 29.48 in998.3 mb 0.02 in0.5 mm 0.00 in0.0 mm 0.05 in1.3 mm
08:00 PM 47.2°F8.4°C 45.6°F7.6°C 94% Calm Calm -- 29.48 in998.3 mb 0.02 in0.5 mm 0.00 in0.0 mm 0.05 in1.3 mm
08:10 PM 47.1°F8.4°C 45.7°F7.6°C 95% Calm Calm -- 29.48 in998.3 mb 0.02 in0.5 mm 0.00 in0.0 mm 0.06 in1.5 mm
08:20 PM 46.9°F8.3°C 45.5°F7.5°C 95% Calm Calm -- 29.48 in998.3 mb 0.02 in0.5 mm 0.00 in0.0 mm 0.06 in1.5 mm
08:30 PM 46.8°F8.2°C 45.4°F7.4°C 95% Calm Calm -- 29.48 in998.3 mb 0.01 in0.3 mm 0.00 in0.0 mm 0.06 in1.5 mm
08:40 PM 46.5°F8.1°C 45.1°F7.3°C 95% Calm Calm -- 29.48 in998.3 mb 0.01 in0.3 mm 0.00 in0.0 mm 0.06 in1.5 mm
08:50 PM 46.5°F8.1°C 45.1°F7.3°C 95% Calm Calm -- 29.48 in998.3 mb 0.01 in0.3 mm 0.00 in0.0 mm 0.06 in1.5 mm
09:00 PM 46.4°F8.0°C 45.3°F7.4°C 96% Calm Calm -- 29.48 in998.3 mb 0.01 in0.3 mm 0.00 in0.0 mm 0.06 in1.5 mm
09:10 PM 46.5°F8.1°C 45.4°F7.4°C 96% Calm Calm -- 29.48 in998.3 mb 0.00 in0.0 mm 0.00 in0.0 mm 0.06 in1.5 mm
09:20 PM 46.5°F8.1°C 45.4°F7.4°C 96% Calm Calm -- 29.48 in998.3 mb 0.00 in0.0 mm 0.00 in0.0 mm 0.06 in1.5 mm
09:30 PM 46.4°F8.0°C 45.3°F7.4°C 96% Calm Calm -- 29.48 in998.3 mb 0.00 in0.0 mm 0.00 in0.0 mm 0.06 in1.5 mm
09:40 PM 46.5°F8.1°C 45.4°F7.4°C 96% Calm Calm 1.0 mph1.6 kmh 29.49 in998.6 mb 0.00 in0.0 mm 0.00 in0.0 mm 0.06 in1.5 mm
09:50 PM 46.5°F8.1°C 45.4°F7.4°C 96% Calm Calm 1.0 mph1.6 kmh 29.49 in998.6 mb 0.00 in0.0 mm 0.00 in0.0 mm 0.06 in1.5 mm
10:00 PM 46.5°F8.1°C 45.4°F7.4°C 96% Calm Calm 1.0 mph1.6 kmh 29.49 in998.6 mb 0.00 in0.0 mm 0.00 in0.0 mm 0.06 in1.5 mm
10:10 PM 46.4°F8.0°C 45.3°F7.4°C 96% Calm Calm 3.0 mph4.8 kmh 29.49 in998.6 mb 0.00 in0.0 mm 0.00 in0.0 mm 0.06 in1.5 mm
10:20 PM 46.3°F7.9°C 45.2°F7.3°C 96% Calm Calm 1.0 mph1.6 kmh 29.49 in998.6 mb 0.00 in0.0 mm 0.00 in0.0 mm 0.06 in1.5 mm
10:30 PM 46.1°F7.8°C 45.0°F7.2°C 96% Calm Calm 1.0 mph1.6 kmh 29.49 in998.6 mb 0.00 in0.0 mm 0.00 in0.0 mm 0.06 in1.5 mm
10:40 PM 46.0°F7.8°C 44.9°F7.2°C 96% Calm Calm -- 29.49 in998.6 mb 0.00 in0.0 mm 0.00 in0.0 mm 0.06 in1.5 mm
10:50 PM 45.9°F7.7°C 44.8°F7.1°C 96% Calm Calm -- 29.50 in999.0 mb 0.00 in0.0 mm 0.00 in0.0 mm 0.06 in1.5 mm
11:00 PM 45.9°F7.7°C 44.8°F7.1°C 96% Calm Calm -- 29.49 in998.6 mb 0.00 in0.0 mm 0.00 in0.0 mm 0.06 in1.5 mm
11:10 PM 45.9°F7.7°C 44.8°F7.1°C 96% Calm Calm -- 29.50 in999.0 mb 0.00 in0.0 mm 0.00 in0.0 mm 0.06 in1.5 mm
11:20 PM 45.9°F7.7°C 44.8°F7.1°C 96% Calm Calm 1.0 mph1.6 kmh 29.49 in998.6 mb 0.00 in0.0 mm 0.00 in0.0 mm 0.06 in1.5 mm
11:30 PM 46.1°F7.8°C 45.0°F7.2°C 96% 1.0 mph NNE1.6 kmh NNE 3.0 mph4.8 kmh 29.49 in998.6 mb 0.00 in0.0 mm 0.00 in0.0 mm 0.06 in1.5 mm
11:40 PM 46.1°F7.8°C 44.7°F7.1°C 95% 1.0 mph SE1.6 kmh SE 1.0 mph1.6 kmh 29.50 in999.0 mb 0.00 in0.0 mm 0.00 in0.0 mm 0.06 in1.5 mm
11:50 PM 45.8°F7.7°C 44.4°F6.9°C 95% Calm Calm -- 29.49 in998.6 mb 0.00 in0.0 mm 0.00 in0.0 mm 0.06 in1.5 mm